createdAt,value
2019-01-02T00:00:59.624Z,8.13
2019-01-02T00:03:26.674Z,8.70
2019-01-02T00:05:53.723Z,8.90
2019-01-02T00:08:20.765Z,9.47
2019-01-02T00:10:48.530Z,8.83
2019-01-02T00:13:15.795Z,8.80
2019-01-02T00:15:42.832Z,8.30
2019-01-02T00:18:09.882Z,8.87
2019-01-02T00:20:36.935Z,8.30
2019-01-02T00:23:04.085Z,10.10
2019-01-02T00:25:31.129Z,9.33
2019-01-02T00:27:58.280Z,8.47
2019-01-02T00:30:26.354Z,8.13
2019-01-02T00:32:53.505Z,8.93
2019-01-02T00:35:20.552Z,10.60
2019-01-02T00:37:47.606Z,9.60
2019-01-02T00:40:15.063Z,9.77
2019-01-02T00:42:42.109Z,8.50
2019-01-02T00:45:09.157Z,7.47
2019-01-02T00:47:36.615Z,9.10
2019-01-02T00:50:03.667Z,9.20
2019-01-02T00:52:30.662Z,9.27
2019-01-02T00:54:57.863Z,7.47
2019-01-02T00:57:25.017Z,8.80
2019-01-02T00:59:52.067Z,8.77
2019-01-02T01:02:19.425Z,9.40
2019-01-02T01:04:46.464Z,8.90
2019-01-02T01:07:13.514Z,6.60
2019-01-02T01:09:42.718Z,5.93
2019-01-02T01:12:09.762Z,7.40
2019-01-02T01:14:36.809Z,8.13
2019-01-02T01:17:05.291Z,8.17
2019-01-02T01:19:32.648Z,7.57
2019-01-02T01:21:59.593Z,7.37
2019-01-02T01:24:26.641Z,8.47
2019-01-02T01:26:53.695Z,8.23
2019-01-02T01:29:20.738Z,7.60
2019-01-02T01:31:49.732Z,7.57
2019-01-02T01:34:16.781Z,7.10
2019-01-02T01:36:43.837Z,6.37
2019-01-02T01:39:11.392Z,8.50
2019-01-02T01:41:38.447Z,7.37
2019-01-02T01:44:05.488Z,7.73
2019-01-02T01:46:32.536Z,7.17
2019-01-02T01:48:59.591Z,4.30
2019-01-02T01:51:26.741Z,6.00
2019-01-02T01:53:53.891Z,10.23
2019-01-02T01:56:21.042Z,6.63
2019-01-02T01:58:48.085Z,9.57
2019-01-02T02:01:15.134Z,9.93
2019-01-02T02:03:42.190Z,10.53
2019-01-02T02:06:09.231Z,9.57
2019-01-02T02:08:36.281Z,12.67
2019-01-02T02:11:03.336Z,10.87
2019-01-02T02:13:30.385Z,10.73
2019-01-02T02:15:57.426Z,10.33
2019-01-02T02:18:24.479Z,13.80
2019-01-02T02:20:51.523Z,11.93
2019-01-02T02:23:18.572Z,11.83
2019-01-02T02:25:45.624Z,14.57
2019-01-02T02:28:12.668Z,16.53
2019-01-02T02:30:39.718Z,16.13
2019-01-02T02:33:06.770Z,14.27
2019-01-02T02:35:33.817Z,8.47
2019-01-02T02:38:00.965Z,5.60
2019-01-02T02:40:28.837Z,2.97
2019-01-02T02:42:55.880Z,16.00
2019-01-02T02:45:23.033Z,14.83
2019-01-02T02:47:50.188Z,4.77
2019-01-02T02:50:17.236Z,14.20
2019-01-02T02:52:44.385Z,17.33
2019-01-02T02:55:11.437Z,6.27
2019-01-02T02:57:38.483Z,10.70
2019-01-02T03:00:06.550Z,16.37
2019-01-02T03:02:33.700Z,8.73
2019-01-02T03:05:00.750Z,10.53
2019-01-02T03:07:27.902Z,12.67
2019-01-02T03:09:54.959Z,16.63
2019-01-02T03:12:21.952Z,14.73
2019-01-02T03:14:48.950Z,5.20
2019-01-02T03:17:15.992Z,3.20
2019-01-02T03:19:43.145Z,11.77
2019-01-02T03:22:10.294Z,13.10
2019-01-02T03:24:37.445Z,9.83
2019-01-02T03:27:04.547Z,11.03
2019-01-02T03:29:31.547Z,7.30
2019-01-02T03:31:58.595Z,9.17
2019-01-02T03:34:25.742Z,12.43
2019-01-02T03:36:54.080Z,11.97
2019-01-02T03:39:21.073Z,10.03
2019-01-02T03:41:48.087Z,12.80
2019-01-02T03:44:15.165Z,13.50
2019-01-02T03:46:42.218Z,0.73
2019-01-02T03:49:09.466Z,4.90
2019-01-02T03:51:36.521Z,5.40
2019-01-02T03:54:03.566Z,2.77
2019-01-02T03:56:30.612Z,7.00
2019-01-02T03:58:57.667Z,5.50
2019-01-02T04:01:34.468Z,4.63
2019-01-02T04:04:07.615Z,4.17
2019-01-02T04:06:44.532Z,3.37
2019-01-02T04:09:11.559Z,4.30
2019-01-02T04:11:38.611Z,9.57
2019-01-02T04:14:05.608Z,10.23
2019-01-02T04:16:32.552Z,1.23
2019-01-02T04:18:59.548Z,4.17
2019-01-02T04:21:26.600Z,8.07
2019-01-02T04:23:53.644Z,1.73
2019-01-02T04:26:20.647Z,4.97
2019-01-02T04:28:47.639Z,11.70
2019-01-02T04:31:14.651Z,14.10
2019-01-02T04:33:41.741Z,6.47
2019-01-02T04:36:08.784Z,10.70
2019-01-02T04:38:35.834Z,12.63
2019-01-02T04:41:03.086Z,3.70
2019-01-02T04:43:30.137Z,5.17
2019-01-02T04:45:57.187Z,12.63
2019-01-02T04:48:24.231Z,6.93
2019-01-02T04:50:51.281Z,13.40
2019-01-02T04:53:38.461Z,10.27
2019-01-02T04:56:24.576Z,11.30
2019-01-02T04:59:11.619Z,11.97
2019-01-02T05:01:54.952Z,5.27
2019-01-02T05:04:40.547Z,12.97
2019-01-02T05:07:08.804Z,10.20
2019-01-02T05:09:35.857Z,11.83
2019-01-02T05:12:02.901Z,12.87
2019-01-02T05:14:29.951Z,12.33
2019-01-02T05:16:57.003Z,14.00
2019-01-02T05:19:24.986Z,12.73
2019-01-02T05:21:53.399Z,13.03
2019-01-02T05:24:20.397Z,12.93
2019-01-02T05:26:47.451Z,11.23
2019-01-02T05:29:14.699Z,12.97
2019-01-02T05:31:41.752Z,10.67
2019-01-02T05:34:08.794Z,21.57
2019-01-02T05:36:35.748Z,8.60
2019-01-02T05:39:02.687Z,7.77
2019-01-02T05:41:48.459Z,4.37
2019-01-02T05:44:34.145Z,12.33
2019-01-02T05:47:20.255Z,5.57
2019-01-02T05:49:47.307Z,2.67
2019-01-02T05:52:15.897Z,12.60
2019-01-02T05:54:42.952Z,12.37
2019-01-02T05:57:09.985Z,14.63
2019-01-02T05:59:37.138Z,9.10
2019-01-02T06:02:04.184Z,10.80
2019-01-02T06:04:31.240Z,12.07
2019-01-02T06:06:58.697Z,12.53
2019-01-02T06:09:25.741Z,14.03
2019-01-02T06:11:52.808Z,5.33
2019-01-02T06:14:20.150Z,11.13
2019-01-02T06:16:47.193Z,12.07
2019-01-02T06:19:14.146Z,11.97
2019-01-02T06:22:02.850Z,1.93
2019-01-02T06:24:44.232Z,11.77
2019-01-02T06:27:11.329Z,13.83
2019-01-02T06:29:38.385Z,11.20
2019-01-02T06:32:05.426Z,8.83
2019-01-02T06:34:32.475Z,7.57
2019-01-02T06:37:00.241Z,10.87
2019-01-02T06:39:27.295Z,10.97
2019-01-02T06:41:54.338Z,13.57
2019-01-02T06:44:23.024Z,8.07
2019-01-02T06:46:50.074Z,11.63
2019-01-02T06:49:18.974Z,3.50
2019-01-02T06:51:46.022Z,3.93
2019-01-02T06:54:13.062Z,9.40
2019-01-02T06:56:40.115Z,7.60
2019-01-02T06:59:26.736Z,4.27
2019-01-02T07:02:12.326Z,4.40
2019-01-02T07:04:39.356Z,6.23
2019-01-02T07:07:06.705Z,7.10
2019-01-02T07:09:33.754Z,7.03
2019-01-02T07:12:00.811Z,2.97
2019-01-02T07:14:27.851Z,2.83
2019-01-02T07:16:55.820Z,8.10
2019-01-02T07:19:23.075Z,8.23
2019-01-02T07:21:51.197Z,10.03
2019-01-02T07:24:18.194Z,8.10
2019-01-02T07:26:45.250Z,8.27
2019-01-02T07:29:12.291Z,8.83
2019-01-02T07:31:39.340Z,13.97
2019-01-02T07:34:06.491Z,11.23
2019-01-02T07:36:41.226Z,8.17
2019-01-02T07:39:23.121Z,8.70
2019-01-02T07:42:07.983Z,7.67
2019-01-02T07:44:38.928Z,8.77
2019-01-02T07:47:21.747Z,3.37
2019-01-02T07:50:06.507Z,2.47
2019-01-02T07:52:41.131Z,1.90
2019-01-02T07:55:14.225Z,10.43
2019-01-02T07:58:03.959Z,1.97
2019-01-02T08:01:02.860Z,2.93
2019-01-02T08:03:45.239Z,1.77
2019-01-02T08:06:15.223Z,1.47
2019-01-02T08:08:42.528Z,2.93
2019-01-02T08:11:12.397Z,4.43
2019-01-02T08:13:44.662Z,4.70
2019-01-02T08:16:11.711Z,5.73
2019-01-02T08:18:48.017Z,4.13
2019-01-02T08:21:30.895Z,3.90
2019-01-02T08:24:03.986Z,3.37
2019-01-02T08:26:34.720Z,6.37
2019-01-02T08:29:20.614Z,4.87
2019-01-02T08:31:49.612Z,2.97
2019-01-02T08:34:36.321Z,3.37
2019-01-02T08:37:03.367Z,6.03
2019-01-02T08:39:32.323Z,1.60
2019-01-02T08:42:01.866Z,3.20
2019-01-02T08:44:33.317Z,5.67
2019-01-02T08:47:07.334Z,2.63
2019-01-02T08:49:39.040Z,4.00
2019-01-02T08:52:11.971Z,4.03
2019-01-02T08:54:42.206Z,9.60
2019-01-02T08:57:25.729Z,2.83
2019-01-02T08:59:53.806Z,4.90
2019-01-02T09:02:22.696Z,4.00
2019-01-02T09:04:53.840Z,3.60
2019-01-02T09:07:22.735Z,5.67
2019-01-02T09:10:08.519Z,7.13
2019-01-02T09:12:45.499Z,2.53
2019-01-02T09:15:29.242Z,10.97
2019-01-02T09:17:58.342Z,10.23
2019-01-02T09:20:42.081Z,7.43
2019-01-02T09:23:09.124Z,6.03
2019-01-02T09:25:43.411Z,6.43
2019-01-02T09:28:21.143Z,2.67
2019-01-02T09:30:49.056Z,2.93
2019-01-02T09:33:17.899Z,6.50
2019-01-02T09:36:18.694Z,5.50
2019-01-02T09:39:15.918Z,6.33
2019-01-02T09:41:51.033Z,9.53
2019-01-02T09:44:23.873Z,4.70
2019-01-02T09:46:57.117Z,5.33
2019-01-02T09:49:25.697Z,5.63
2019-01-02T09:51:59.714Z,6.30
2019-01-02T09:54:42.381Z,6.47
2019-01-02T09:57:26.579Z,5.93
2019-01-02T09:59:58.645Z,6.43
2019-01-02T10:02:33.369Z,6.77
2019-01-02T10:05:01.243Z,6.73
2019-01-02T10:07:44.060Z,9.50
2019-01-02T10:10:11.103Z,7.37
2019-01-02T10:12:39.073Z,2.03
2019-01-02T10:15:21.891Z,3.33
2019-01-02T10:17:51.910Z,5.80
2019-01-02T10:20:19.783Z,3.23
2019-01-02T10:22:52.770Z,9.80
2019-01-02T10:25:19.813Z,10.00
2019-01-02T10:27:52.909Z,11.97
2019-01-02T10:30:21.903Z,8.03
2019-01-02T10:32:49.975Z,12.33
2019-01-02T10:35:22.856Z,10.13
2019-01-02T10:37:51.651Z,9.10
2019-01-02T10:40:23.609Z,6.97
2019-01-02T10:42:56.493Z,4.27
2019-01-02T10:45:29.385Z,8.70
2019-01-02T10:47:56.433Z,5.10
2019-01-02T10:50:24.302Z,9.00
2019-01-02T10:52:56.371Z,6.83
2019-01-02T10:55:24.540Z,8.23
2019-01-02T10:57:54.556Z,9.83
2019-01-02T11:00:29.190Z,16.03
2019-01-02T11:03:02.682Z,16.90
2019-01-02T11:05:48.570Z,14.53
2019-01-02T11:08:17.566Z,12.60
2019-01-02T11:11:00.235Z,11.23
2019-01-02T11:13:33.479Z,35.10
2019-01-02T11:16:02.266Z,17.90
2019-01-02T11:18:31.258Z,13.03
2019-01-02T11:21:03.018Z,14.80
2019-01-02T11:23:30.271Z,10.40
2019-01-02T11:25:59.066Z,11.70
2019-01-02T11:28:34.207Z,11.20
2019-01-02T11:31:17.226Z,8.90
2019-01-02T11:33:59.126Z,9.37
2019-01-02T11:36:26.997Z,9.33
2019-01-02T11:39:03.767Z,9.20
2019-01-02T11:41:31.739Z,12.33
2019-01-02T11:44:04.619Z,10.90
2019-01-02T11:46:33.307Z,2.47
2019-01-02T11:49:00.354Z,2.30
2019-01-02T11:51:27.412Z,1.43
2019-01-02T11:53:54.456Z,0.67
2019-01-02T11:56:21.500Z,1.43
2019-01-02T11:58:50.016Z,1.60
2019-01-02T12:01:16.518Z,1.73
2019-01-02T12:03:43.597Z,1.73
2019-01-02T12:06:10.620Z,1.40
2019-01-02T12:08:37.667Z,0.77
2019-01-02T12:11:04.714Z,0.40
2019-01-02T12:13:31.767Z,0.23
2019-01-02T12:15:58.808Z,0.30
2019-01-02T12:18:25.858Z,0.57
2019-01-02T12:20:53.725Z,0.40
2019-01-02T12:23:20.774Z,0.77
2019-01-02T12:25:47.828Z,0.53
2019-01-02T12:28:14.872Z,0.70
2019-01-02T12:30:41.920Z,1.07
2019-01-02T12:33:08.974Z,0.77
2019-01-02T12:35:36.018Z,0.87
2019-01-02T12:38:02.967Z,1.00
2019-01-02T12:40:31.444Z,0.60
2019-01-02T12:42:58.500Z,0.60
2019-01-02T12:45:26.975Z,0.70
2019-01-02T12:47:54.032Z,0.93
2019-01-02T12:50:21.073Z,0.53
2019-01-02T12:52:48.121Z,0.60
2019-01-02T12:55:16.499Z,0.63
2019-01-02T12:57:43.755Z,0.57
2019-01-02T13:00:11.279Z,0.50
2019-01-02T13:02:41.947Z,0.90
2019-01-02T13:05:25.790Z,0.90
2019-01-02T13:08:03.590Z,1.10
2019-01-02T13:10:30.644Z,0.97
2019-01-02T13:12:58.871Z,1.53
2019-01-02T13:15:42.400Z,1.30
2019-01-02T13:18:10.223Z,1.53
2019-01-02T13:20:38.294Z,0.57
2019-01-02T13:23:05.338Z,0.80
2019-01-02T13:25:35.668Z,0.90
2019-01-02T13:28:04.554Z,0.90
2019-01-02T13:30:37.166Z,0.50
2019-01-02T13:33:08.071Z,0.90
2019-01-02T13:35:44.547Z,0.70
2019-01-02T13:38:13.483Z,0.80
2019-01-02T13:40:42.435Z,0.53
2019-01-02T13:43:14.161Z,0.70
2019-01-02T13:45:41.543Z,1.20
2019-01-02T13:48:24.360Z,1.80
2019-01-02T13:50:51.415Z,0.70
2019-01-02T13:53:18.458Z,0.60
2019-01-02T13:55:45.356Z,0.90
2019-01-02T13:58:12.353Z,0.60
2019-01-02T14:00:39.404Z,1.00
2019-01-02T14:03:06.448Z,0.80
2019-01-02T14:05:33.496Z,0.90
2019-01-02T14:08:00.550Z,0.80
2019-01-02T14:10:27.593Z,1.07
2019-01-02T14:12:54.487Z,0.83
2019-01-02T14:15:21.536Z,1.10
2019-01-02T14:17:48.479Z,1.10
2019-01-02T14:20:15.481Z,0.70
2019-01-02T14:22:42.427Z,0.80
2019-01-02T14:25:09.584Z,0.70
2019-01-02T14:27:36.733Z,1.00
2019-01-02T14:30:04.702Z,0.70
2019-01-02T14:32:31.763Z,0.77
2019-01-02T14:34:58.800Z,0.60
2019-01-02T14:37:25.893Z,0.90
2019-01-02T14:39:52.900Z,0.80
2019-01-02T14:42:20.663Z,0.80
2019-01-02T14:44:47.707Z,0.73
2019-01-02T14:47:14.755Z,0.90
2019-01-02T14:49:42.164Z,0.77
2019-01-02T14:52:09.267Z,0.87
2019-01-02T14:54:36.208Z,0.90
2019-01-02T14:57:03.665Z,0.87
2019-01-02T14:59:30.720Z,0.73
2019-01-02T15:01:57.763Z,0.60
2019-01-02T15:04:25.837Z,0.70
2019-01-02T15:06:52.788Z,0.60
2019-01-02T15:09:19.829Z,1.00
2019-01-02T15:11:46.782Z,0.90
2019-01-02T15:14:13.825Z,1.40
2019-01-02T15:16:44.567Z,0.60
2019-01-02T15:19:07.927Z,0.50
2019-01-02T15:21:35.019Z,0.70
2019-01-02T15:24:03.061Z,1.10
2019-01-02T15:26:30.195Z,0.97
2019-01-02T15:28:57.244Z,1.00
2019-01-02T15:31:24.296Z,0.90
2019-01-02T15:33:51.340Z,1.30
2019-01-02T15:36:18.388Z,0.93
2019-01-02T15:38:45.442Z,1.10
2019-01-02T15:41:13.308Z,0.90
2019-01-02T15:43:40.359Z,1.10
2019-01-02T15:46:07.402Z,1.00
2019-01-02T15:48:34.449Z,1.73
2019-01-02T15:51:01.504Z,6.60
2019-01-02T15:53:28.547Z,1.23
2019-01-02T15:55:55.596Z,1.43
2019-01-02T15:58:25.263Z,5.13
2019-01-02T16:00:53.685Z,2.27
2019-01-02T16:03:21.252Z,28.83
2019-01-02T16:05:48.295Z,2.47
2019-01-02T16:08:15.343Z,7.60
2019-01-02T16:10:42.398Z,1.17
2019-01-02T16:13:09.400Z,2.83
2019-01-02T16:15:36.393Z,1.50
2019-01-02T16:18:03.435Z,1.23
2019-01-02T16:20:32.236Z,1.10
2019-01-02T16:25:32.466Z,1.43
2019-01-02T16:27:59.923Z,1.40
2019-01-02T16:30:26.920Z,2.10
2019-01-02T16:32:54.021Z,3.17
2019-01-02T16:35:21.069Z,2.20
2019-01-02T16:37:48.267Z,2.00
2019-01-02T16:40:15.276Z,1.53
2019-01-02T16:42:43.138Z,1.90
2019-01-02T16:45:10.192Z,1.67
2019-01-02T16:47:37.235Z,1.77
2019-01-02T16:50:04.283Z,2.67
2019-01-02T16:52:32.100Z,18.23
2019-01-02T16:54:59.045Z,2.73
2019-01-02T16:57:26.043Z,16.57
2019-01-02T16:59:53.096Z,3.53
2019-01-02T17:02:20.141Z,6.80
2019-01-02T17:04:47.188Z,74.03
2019-01-02T17:07:16.394Z,91.17
2019-01-02T17:09:43.436Z,19.73
2019-01-02T17:12:11.201Z,16.27
2019-01-02T17:14:38.250Z,5.67
2019-01-02T17:17:05.320Z,2.23
2019-01-02T17:19:32.964Z,2.33
2019-01-02T17:22:02.065Z,2.40
2019-01-02T17:24:29.725Z,1.50
2019-01-02T17:26:56.772Z,3.00
2019-01-02T17:29:23.825Z,1.97
2019-01-02T17:31:50.871Z,2.20
2019-01-02T17:34:17.914Z,2.60
2019-01-02T17:36:44.971Z,39.43
2019-01-02T17:39:11.910Z,5.90
2019-01-02T17:41:38.992Z,4.70
2019-01-02T17:44:06.008Z,4.20
2019-01-02T17:46:33.056Z,5.20
2019-01-02T17:49:00.110Z,5.30
2019-01-02T17:51:27.151Z,3.10
2019-01-02T17:53:54.204Z,2.33
2019-01-02T17:56:21.547Z,2.33
2019-01-02T17:58:48.864Z,3.53
2019-01-02T18:01:15.864Z,3.63
2019-01-02T18:03:47.411Z,5.40
2019-01-02T18:06:16.003Z,5.23
2019-01-02T18:08:43.049Z,5.97
2019-01-02T18:11:12.170Z,4.13
2019-01-02T18:13:39.300Z,4.70
2019-01-02T18:16:06.343Z,4.40
2019-01-02T18:18:34.524Z,5.00
2019-01-02T18:21:01.566Z,4.57
2019-01-02T18:23:28.518Z,6.43
2019-01-02T18:25:55.562Z,3.47
2019-01-02T18:28:22.610Z,6.33
2019-01-02T18:30:49.664Z,17.50
2019-01-02T18:33:16.707Z,7.40
2019-01-02T18:35:43.756Z,13.70
2019-01-02T18:38:29.801Z,10.10
2019-01-02T18:41:16.923Z,5.50
2019-01-02T18:43:44.019Z,3.17
2019-01-02T18:46:11.067Z,5.00
2019-01-02T18:48:38.122Z,5.37
2019-01-02T18:51:05.164Z,3.57
2019-01-02T18:53:32.213Z,3.40
2019-01-02T18:55:59.268Z,5.13
2019-01-02T18:58:26.312Z,2.73
2019-01-02T19:00:53.359Z,2.43
2019-01-02T19:03:20.413Z,3.10
2019-01-02T19:05:47.871Z,2.80
2019-01-02T19:08:14.914Z,2.20
2019-01-02T19:10:41.962Z,1.87
2019-01-02T19:13:09.016Z,2.50
2019-01-02T19:15:36.060Z,2.23
2019-01-02T19:18:03.109Z,1.90
2019-01-02T19:20:30.161Z,1.20
2019-01-02T19:22:57.205Z,1.50
2019-01-02T19:25:24.254Z,1.47
2019-01-02T19:27:51.313Z,1.30
2019-01-02T19:30:18.351Z,1.90
2019-01-02T19:32:45.356Z,1.80
2019-01-02T19:35:12.463Z,2.30
2019-01-02T19:37:39.497Z,1.57
2019-01-02T19:40:06.545Z,1.30
2019-01-02T19:42:33.599Z,1.80
2019-01-02T19:45:00.592Z,1.83
2019-01-02T19:47:27.596Z,2.93
2019-01-02T19:49:54.637Z,2.03
2019-01-02T19:52:21.684Z,3.00
2019-01-02T19:54:48.738Z,3.77
2019-01-02T19:57:16.504Z,2.97
2019-01-02T19:59:43.446Z,2.80
2019-01-02T20:02:10.392Z,1.10
2019-01-02T20:04:37.440Z,1.37
2019-01-02T20:07:06.956Z,2.20
2019-01-02T20:09:33.891Z,2.90
2019-01-02T20:12:00.946Z,2.20
2019-01-02T20:14:27.960Z,2.67
2019-01-02T20:16:55.556Z,2.33
2019-01-02T20:19:24.342Z,1.53
2019-01-02T20:21:51.287Z,3.30
2019-01-02T20:24:18.439Z,2.00
2019-01-02T20:26:45.490Z,3.73
2019-01-02T20:29:12.540Z,4.10
2019-01-02T20:31:42.294Z,4.23
2019-01-02T20:34:09.398Z,5.50
2019-01-02T20:36:40.689Z,3.47
2019-01-02T20:39:05.017Z,3.50
2019-01-02T20:41:30.753Z,2.83
2019-01-02T20:43:57.796Z,6.00
2019-01-02T20:46:24.841Z,9.80
2019-01-02T20:48:51.897Z,3.30
2019-01-02T20:51:21.056Z,3.73
2019-01-02T20:53:47.631Z,4.77
2019-01-02T20:56:16.421Z,5.37
2019-01-02T20:58:43.572Z,5.60
2019-01-02T21:01:10.614Z,5.43
2019-01-02T21:03:37.664Z,5.40
2019-01-02T21:06:04.717Z,11.40
2019-01-02T21:08:31.659Z,6.50
2019-01-02T21:10:58.712Z,5.07
2019-01-02T21:13:25.755Z,3.27
2019-01-02T21:15:52.808Z,4.33
2019-01-02T21:18:20.877Z,4.57
2019-01-02T21:20:47.930Z,5.10
2019-01-02T21:23:14.977Z,5.07
2019-01-02T21:25:42.284Z,1.57
2019-01-02T21:28:09.273Z,5.67
2019-01-02T21:30:36.322Z,4.43
2019-01-02T21:33:03.377Z,5.03
2019-01-02T21:35:30.527Z,6.10
2019-01-02T21:37:57.572Z,3.07
2019-01-02T21:40:25.136Z,5.63
2019-01-02T21:42:52.487Z,4.63
2019-01-02T21:45:19.535Z,3.97
2019-01-02T21:47:46.591Z,3.00
2019-01-02T21:50:14.048Z,2.63
2019-01-02T21:52:41.092Z,2.40
2019-01-02T21:55:08.142Z,2.70
2019-01-02T21:57:35.598Z,1.43
2019-01-02T22:00:02.653Z,2.23
2019-01-02T22:02:30.513Z,2.07
2019-01-02T22:04:59.103Z,2.20
2019-01-02T22:07:26.156Z,2.20
2019-01-02T22:09:53.195Z,1.67
2019-01-02T22:12:21.707Z,1.30
2019-01-02T22:14:48.726Z,2.10
2019-01-02T22:17:15.782Z,2.00
2019-01-02T22:19:42.876Z,1.00
2019-01-02T22:22:21.141Z,1.50
2019-01-02T22:24:48.137Z,5.10
2019-01-02T22:27:15.335Z,1.70
2019-01-02T22:29:42.383Z,1.80
2019-01-02T22:32:09.436Z,1.70
2019-01-02T22:34:36.480Z,1.90
2019-01-02T22:37:04.504Z,0.93
2019-01-02T22:39:31.504Z,1.97
2019-01-02T22:41:58.505Z,1.50
2019-01-02T22:44:25.499Z,1.70
2019-01-02T22:46:52.543Z,1.30
2019-01-02T22:49:19.591Z,1.47
2019-01-02T22:51:46.645Z,1.10
2019-01-02T22:54:13.993Z,1.30
2019-01-02T22:56:41.042Z,0.80
2019-01-02T22:59:08.097Z,1.30
2019-01-02T23:01:35.140Z,1.07
2019-01-02T23:04:03.825Z,1.60
2019-01-02T23:06:34.616Z,0.97
2019-01-02T23:09:21.378Z,1.00
2019-01-02T23:12:03.275Z,1.20
2019-01-02T23:14:36.055Z,0.97
2019-01-02T23:17:18.875Z,1.00
2019-01-02T23:19:55.756Z,0.80
2019-01-02T23:22:24.342Z,1.17
2019-01-02T23:25:08.081Z,1.43
2019-01-02T23:27:38.808Z,1.00
2019-01-02T23:30:18.976Z,1.40
2019-01-02T23:32:52.158Z,0.73
2019-01-02T23:35:20.045Z,1.00
2019-01-02T23:38:06.843Z,1.20
2019-01-02T23:40:44.746Z,1.00
2019-01-02T23:43:18.546Z,0.50
2019-01-02T23:45:52.874Z,0.80
2019-01-02T23:48:19.915Z,0.70
2019-01-02T23:50:54.336Z,1.03
2019-01-02T23:53:22.409Z,0.83
2019-01-02T23:55:55.606Z,0.60
2019-01-02T23:58:22.651Z,0.70
